This demonstration page uses our WeatherBlox Daily Observations layout. Learn more.

39.92423, -83.80882

Hourly Observations for August 28, 2018

Temp ( °F °C ) Dew Point ( °F °C ) Humidity (%) Winds ( mph kmh ) Pressure ( in mb ) Visibility ( mi km ) Precip ( " mm )
12:56 am 00:56 Clear 73 22.8 72 22.2 96 96 SSW 5 7 30.05 1018 10 16.0934 0 0
1:56 am 01:56 Clear 73 22.8 71 21.7 94 94 S 5 7 30.05 1018 10 16.0934 0 0
2:56 am 02:56 Clear 72 22.2 70 21.1 94 94 SSW 5 7 30.06 1018 10 16.0934 0 0
3:56 am 03:56 Clear 72 22.2 70 21.1 94 94 SSW 5 7 30.06 1018 10 16.0934 0 0
4:56 am 04:56 Clear 71 21.7 70 21.1 96 96 SSW 3 6 30.07 1018 10 16.0934 0 0
5:56 am 05:56 Clear 71 21.7 69 20.6 94 94 S 3 6 30.08 1019 10 16.0934 0 0
6:56 am 06:56 Clear 71 21.7 69 20.6 94 94 SSW 8 13 30.08 1019 10 16.0934 0 0
7:56 am 07:56 Sunny 72 22.2 70 21.1 94 94 SSW 7 11 30.1 1019 10 16.0934 0 0
8:56 am 08:56 Sunny 76 24.4 71 21.7 85 85 SW 10 17 30.09 1019 10 16.0934 0 0
9:56 am 09:56 Sunny 80 26.7 72 22.2 76 76 SW 9 15 30.1 1019 10 16.0934 0 0
10:56 am 10:56 Sunny 83 28.3 74 23.3 74 74 SW 8 13 30.1 1019 10 16.0934 0 0
12:56 pm 12:56 Partly Cloudy 88 31.1 74 23.3 63 63 WSW 13 20 30.11 1020 10 16.0934 0 0
1:56 pm 13:56 Mostly Sunny 89 31.7 73 22.8 59 59 W 12 19 30.1 1019 10 16.0934 0 0
2:56 pm 14:56 Mostly Sunny 87 30.6 73 22.8 63 63 SW 9 15 30.08 1019 10 16.0934 0 0
3:56 pm 15:56 Sunny 89 31.7 73 22.8 59 59 SSW 12 19 30.05 1018 10 16.0934 0 0
4:56 pm 16:56 Sunny 88 31.1 73 22.8 61 61 SSW 8 13 30.04 1017 10 16.0934 0 0
5:56 pm 17:56 Sunny 87 30.6 73 22.8 63 63 S 9 15 30.03 1017 10 16.0934 0 0
6:56 pm 18:56 Sunny 85 29.4 73 22.8 68 68 SSW 6 9 30.02 1017 10 16.0934 0 0
7:56 pm 19:56 Sunny 81 27.2 73 22.8 77 77 SSW 5 7 30.04 1017 10 16.0934 0 0
8:56 pm 20:56 Clear 78 25.6 73 22.8 85 85 S 5 7 30.04 1017 10 16.0934 0 0
9:56 pm 21:56 Clear 77 25 72 22.2 85 85 S 5 7 30.02 1017 10 16.0934 0 0
10:56 pm 22:56 Clear 76 24.4 72 22.2 88 88 S 7 11 30.02 1017 10 16.0934 0 0
11:56 pm 23:56 Clear 75 23.9 72 22.2 90 90 SSW 3 6 30.04 1017 10 16.0934 0 0

Powered by AerisWeather